This is the latest recevied weather packets stored in our database for station/object HS2XQB-3. If no packets are shown the sender has not sent any weather packets the latest 10 day(s).
| Time | Temp. | Humidity | Pressure | Rain* | Wind** | Luminosity | Snow |
|---|---|---|---|---|---|---|---|
| 1778252947 | 23.89° C | 79% | 1006 hPa | - | - | 0 W/m² | - |
| 1778251125 | 23.33° C | 73% | 1006 hPa | - | - | 0 W/m² | - |
| 1778249303 | 23.89° C | 80% | 1006 hPa | - | - | 0 W/m² | - |
| 1778247480 | 23.89° C | 71% | 1006 hPa | - | - | 0 W/m² | - |
| 1778245658 | 23.89° C | 74% | 1005 hPa | - | - | 0 W/m² | - |
| 1778243836 | 24.44° C | 78% | 1004 hPa | - | - | 0 W/m² | - |
| 1778242013 | 23.89° C | 69% | 1004 hPa | - | - | 0 W/m² | - |
| 1778240191 | 23.89° C | 73% | 1004 hPa | - | - | 0 W/m² | - |
| 1778238369 | 24.44° C | 74% | 1003 hPa | - | - | 0 W/m² | - |
| 1778236546 | 24.44° C | 73% | 1002 hPa | - | - | 0 W/m² | - |
| 1778234724 | 23.89° C | 67% | 1002 hPa | - | - | 0 W/m² | - |
| 1778232902 | 24.44° C | 59% | 1002 hPa | - | - | 0 W/m² | - |
| 1778231080 | 25° C | 55% | 1002 hPa | - | - | 0 W/m² | - |
| 1778229258 | 25° C | 50% | 1002 hPa | - | - | 0 W/m² | - |
| 1778227436 | 25° C | 45% | 1002 hPa | - | - | 0 W/m² | - |
| 1778225614 | 25° C | 44% | 1002 hPa | - | - | 0 W/m² | - |
| 1778223792 | 25.56° C | 45% | 1002 hPa | - | - | 0 W/m² | - |
| 1778221970 | 25° C | 45% | 1003 hPa | - | - | 0 W/m² | - |
| 1778220147 | 25° C | 47% | 1004 hPa | - | - | 0 W/m² | - |
| 1778218325 | 24.44° C | 47% | 1004 hPa | - | - | 0 W/m² | - |
| 1778216504 | 25° C | 62% | 1005 hPa | - | - | 0 W/m² | - |
| 1778214682 | 25° C | 63% | 1006 hPa | - | - | 0 W/m² | - |
| 1778212859 | 24.44° C | 59% | 1006 hPa | - | - | 0 W/m² | - |
| 1778211037 | 25° C | 67% | 1006 hPa | - | - | 0 W/m² | - |
| 1778209215 | 24.44° C | 63% | 1006 hPa | - | - | 0 W/m² | - |
* Rain since midnight (hover to see other rain measurements)
** Current wind speed in m/s (hover to see current wind gust speed)